createdAt,value
2022-12-05T00:02:17.036Z,1.40
2022-12-05T00:05:29.021Z,1.43
2022-12-05T00:08:40.645Z,1.48
2022-12-05T00:11:54.034Z,1.40
2022-12-05T00:15:05.869Z,1.40
2022-12-05T00:18:17.582Z,1.38
2022-12-05T00:21:33.122Z,1.39
2022-12-05T00:24:47.076Z,1.28
2022-12-05T00:27:58.667Z,1.30
2022-12-05T00:31:12.623Z,1.35
2022-12-05T00:34:24.434Z,1.39
2022-12-05T00:37:36.433Z,1.39
2022-12-05T00:40:48.014Z,1.39
2022-12-05T00:44:02.654Z,1.39
2022-12-05T00:47:14.444Z,1.45
2022-12-05T00:50:26.251Z,1.40
2022-12-05T00:53:38.722Z,1.44
2022-12-05T00:56:52.513Z,1.48
2022-12-05T01:00:04.098Z,1.37
2022-12-05T01:03:15.805Z,1.27
2022-12-05T01:06:29.225Z,1.27
2022-12-05T01:09:40.819Z,1.29
2022-12-05T01:12:52.412Z,1.29
2022-12-05T01:16:04.325Z,1.24
2022-12-05T01:19:20.200Z,1.22
2022-12-05T01:22:31.775Z,1.23
2022-12-05T01:25:47.428Z,1.26
2022-12-05T01:28:59.759Z,1.22
2022-12-05T01:32:12.114Z,1.22
2022-12-05T01:35:24.145Z,1.17
2022-12-05T01:38:35.860Z,1.14
2022-12-05T01:41:51.927Z,1.17
2022-12-05T01:45:22.505Z,1.13
2022-12-05T01:48:39.078Z,1.14
2022-12-05T01:51:54.035Z,1.17
2022-12-05T01:55:11.641Z,1.15
2022-12-05T01:58:24.279Z,1.16
2022-12-05T02:01:36.013Z,1.20
2022-12-05T02:04:54.225Z,1.27
2022-12-05T02:08:09.748Z,1.20
2022-12-05T02:11:22.096Z,1.20
2022-12-05T02:14:39.565Z,1.22
2022-12-05T02:17:58.678Z,1.27
2022-12-05T02:21:29.978Z,1.25
2022-12-05T02:25:08.966Z,1.28
2022-12-05T02:28:40.362Z,1.26
2022-12-05T02:31:57.475Z,1.26
2022-12-05T02:35:17.007Z,1.34
2022-12-05T02:38:36.593Z,1.33
2022-12-05T02:41:55.847Z,1.37
2022-12-05T02:45:12.654Z,1.31
2022-12-05T02:48:24.860Z,1.22
2022-12-05T02:51:41.089Z,1.27
2022-12-05T02:54:58.037Z,1.32
2022-12-05T02:58:11.470Z,1.33
2022-12-05T03:01:24.618Z,1.32
2022-12-05T03:04:37.792Z,1.34
2022-12-05T03:07:53.138Z,1.29
2022-12-05T03:11:08.347Z,1.31
2022-12-05T03:14:25.155Z,1.27
2022-12-05T03:17:41.879Z,1.23
2022-12-05T03:20:58.826Z,1.21
2022-12-05T03:24:15.961Z,1.24
2022-12-05T03:27:33.873Z,1.24
2022-12-05T03:30:47.607Z,1.34
2022-12-05T03:34:02.682Z,1.35
2022-12-05T03:37:21.046Z,1.35
2022-12-05T03:40:38.833Z,1.34
2022-12-05T03:43:57.362Z,1.35
2022-12-05T03:47:14.478Z,1.32
2022-12-05T03:50:31.179Z,1.30
2022-12-05T03:53:48.258Z,1.34
2022-12-05T03:57:01.258Z,1.38
2022-12-05T04:00:19.767Z,1.35
2022-12-05T04:03:39.727Z,1.36
2022-12-05T04:06:55.175Z,1.41
2022-12-05T04:10:12.399Z,1.47
2022-12-05T04:13:29.290Z,1.42
2022-12-05T04:17:01.780Z,1.46
2022-12-05T04:20:34.416Z,1.47
2022-12-05T04:23:48.236Z,1.50
2022-12-05T04:27:08.975Z,1.43
2022-12-05T04:30:25.830Z,1.46
2022-12-05T04:33:44.646Z,1.48
2022-12-05T04:37:00.758Z,1.53
2022-12-05T04:40:21.498Z,1.51
2022-12-05T04:43:34.999Z,1.50
2022-12-05T04:46:49.448Z,1.46
2022-12-05T04:50:02.394Z,1.46
2022-12-05T04:53:14.951Z,1.50
2022-12-05T04:56:31.241Z,1.59
2022-12-05T04:59:43.379Z,1.55
2022-12-05T05:03:00.336Z,1.57
2022-12-05T05:06:10.662Z,1.64
2022-12-05T05:09:22.322Z,1.58
2022-12-05T05:12:34.059Z,1.57
2022-12-05T05:15:45.730Z,1.59
2022-12-05T05:18:58.429Z,1.60
2022-12-05T05:22:10.174Z,1.65
2022-12-05T05:25:22.240Z,1.64
2022-12-05T05:28:33.875Z,1.67
2022-12-05T05:31:47.210Z,1.63
2022-12-05T05:34:58.948Z,1.60
2022-12-05T05:38:10.649Z,1.57
2022-12-05T05:41:25.065Z,1.56
2022-12-05T05:44:36.749Z,1.57
2022-12-05T05:47:49.236Z,1.55
2022-12-05T05:51:01.113Z,1.58
2022-12-05T05:54:13.376Z,1.60
2022-12-05T05:57:25.047Z,1.58
2022-12-05T06:00:36.804Z,1.59
2022-12-05T06:04:01.472Z,1.60
2022-12-05T06:07:13.320Z,1.62
2022-12-05T06:10:25.178Z,1.53
2022-12-05T06:13:37.055Z,1.50
2022-12-05T06:16:48.812Z,1.55
2022-12-05T06:20:00.755Z,1.61
2022-12-05T06:23:12.670Z,1.57
2022-12-05T06:26:26.810Z,1.55
2022-12-05T06:29:38.609Z,1.55
2022-12-05T06:32:50.696Z,1.59
2022-12-05T06:36:14.695Z,1.59
2022-12-05T06:39:26.533Z,1.60
2022-12-05T06:42:39.000Z,1.59
2022-12-05T06:45:50.726Z,1.63
2022-12-05T06:49:03.801Z,1.60
2022-12-05T06:52:16.227Z,1.60
2022-12-05T06:55:28.053Z,1.62
2022-12-05T06:58:39.733Z,1.65
2022-12-05T07:01:51.706Z,1.63
2022-12-05T07:05:04.703Z,1.64
2022-12-05T07:08:16.782Z,1.62
2022-12-05T07:11:28.863Z,1.66
2022-12-05T07:14:47.483Z,1.66
2022-12-05T07:17:54.417Z,1.73
2022-12-05T07:21:12.896Z,1.66
2022-12-05T07:24:22.769Z,1.70
2022-12-05T07:27:36.663Z,1.72
2022-12-05T07:30:48.550Z,1.65
2022-12-05T07:34:00.363Z,1.70
2022-12-05T07:37:13.978Z,1.77
2022-12-05T07:40:27.220Z,1.79
2022-12-05T07:43:39.422Z,1.80
2022-12-05T07:46:51.181Z,1.78
2022-12-05T07:50:02.922Z,1.79
2022-12-05T07:53:14.683Z,1.80
2022-12-05T07:56:27.094Z,1.78
2022-12-05T07:59:39.016Z,1.77
2022-12-05T08:02:51.180Z,1.82
2022-12-05T08:06:07.571Z,1.86
2022-12-05T08:09:19.653Z,1.83
2022-12-05T08:12:31.421Z,1.84
2022-12-05T08:15:43.591Z,1.88
2022-12-05T08:18:55.854Z,1.81
2022-12-05T08:22:07.792Z,1.82
2022-12-05T08:25:19.544Z,1.82
2022-12-05T08:28:31.237Z,1.89
2022-12-05T08:31:47.414Z,1.88
2022-12-05T08:34:59.499Z,1.94
2022-12-05T08:38:11.447Z,1.94
2022-12-05T08:41:26.132Z,1.95
2022-12-05T08:44:37.754Z,1.83
2022-12-05T08:47:49.448Z,1.95
2022-12-05T08:51:01.549Z,1.95
2022-12-05T08:54:13.869Z,1.95
2022-12-05T08:57:25.599Z,1.98
2022-12-05T09:00:37.557Z,2.01
2022-12-05T09:03:50.859Z,2.07
2022-12-05T09:07:02.877Z,2.00
2022-12-05T09:10:16.837Z,1.97
2022-12-05T09:13:28.552Z,2.03
2022-12-05T09:16:42.833Z,2.04
2022-12-05T09:19:58.196Z,2.03
2022-12-05T09:23:15.737Z,2.08
2022-12-05T09:26:28.262Z,2.09
2022-12-05T09:29:40.119Z,2.07
2022-12-05T09:32:51.912Z,2.17
2022-12-05T09:36:06.043Z,2.13
2022-12-05T09:39:18.914Z,2.21
2022-12-05T09:42:56.457Z,2.24
2022-12-05T09:46:14.576Z,2.21
2022-12-05T09:49:27.756Z,2.27
2022-12-05T09:52:45.365Z,2.29
2022-12-05T09:56:03.962Z,2.36
2022-12-05T09:59:20.974Z,2.30
2022-12-05T10:02:35.983Z,2.29
2022-12-05T10:05:53.173Z,2.23
2022-12-05T10:09:11.520Z,2.38
2022-12-05T10:12:35.010Z,2.52
2022-12-05T10:15:56.814Z,2.48
2022-12-05T10:19:10.466Z,2.59
2022-12-05T10:22:27.191Z,2.75
2022-12-05T10:25:40.397Z,2.90
2022-12-05T10:28:57.801Z,3.08
2022-12-05T10:32:17.109Z,2.99
2022-12-05T10:35:31.534Z,3.07
2022-12-05T10:38:43.935Z,3.06
2022-12-05T10:41:56.900Z,3.23
2022-12-05T10:45:15.087Z,3.35
2022-12-05T10:48:28.413Z,3.53
2022-12-05T10:51:40.810Z,3.70
2022-12-05T10:54:59.107Z,3.74
2022-12-05T10:58:23.172Z,3.91
2022-12-05T11:01:35.874Z,3.95
2022-12-05T11:04:51.284Z,4.00
2022-12-05T11:08:05.053Z,3.99
2022-12-05T11:11:28.462Z,4.02
2022-12-05T11:14:40.637Z,4.17
2022-12-05T11:17:54.527Z,4.29
2022-12-05T11:21:19.380Z,4.34
2022-12-05T11:24:36.096Z,4.37
2022-12-05T11:27:48.128Z,4.70
2022-12-05T11:31:08.713Z,5.04
2022-12-05T11:34:25.946Z,5.24
2022-12-05T11:37:42.912Z,5.37
2022-12-05T11:41:02.291Z,5.35
2022-12-05T11:44:34.347Z,5.17
2022-12-05T11:48:03.492Z,5.22
2022-12-05T11:51:28.204Z,5.56
2022-12-05T11:55:07.277Z,5.69
2022-12-05T11:58:45.128Z,5.85
2022-12-05T12:02:05.065Z,5.95
2022-12-05T12:05:24.182Z,6.01
2022-12-05T12:08:39.775Z,5.99
2022-12-05T12:11:57.002Z,6.02
2022-12-05T12:15:22.958Z,6.09
2022-12-05T12:19:03.930Z,6.18
2022-12-05T12:22:30.527Z,6.31
2022-12-05T12:25:49.381Z,6.39
2022-12-05T12:29:07.738Z,6.42
2022-12-05T12:32:29.904Z,6.46
2022-12-05T12:35:48.067Z,6.51
2022-12-05T12:39:18.605Z,6.34
2022-12-05T12:42:34.674Z,6.35
2022-12-05T12:46:11.323Z,6.41
2022-12-05T12:49:47.611Z,6.36
2022-12-05T12:53:16.490Z,6.34
2022-12-05T12:56:41.505Z,6.34
2022-12-05T13:00:06.144Z,6.36
2022-12-05T13:03:24.228Z,6.33
2022-12-05T13:06:39.978Z,6.29
2022-12-05T13:09:57.072Z,6.27
2022-12-05T13:13:11.943Z,6.31
2022-12-05T13:16:31.335Z,6.35
2022-12-05T13:19:49.275Z,6.37
2022-12-05T13:23:06.257Z,6.44
2022-12-05T13:26:19.125Z,6.46
2022-12-05T13:29:37.546Z,6.59
2022-12-05T13:32:49.702Z,6.60
2022-12-05T13:36:25.026Z,6.60
2022-12-05T13:39:51.653Z,6.55
2022-12-05T13:43:10.637Z,6.51
2022-12-05T13:46:31.626Z,6.43
2022-12-05T13:49:51.516Z,6.47
2022-12-05T13:53:08.733Z,6.47
2022-12-05T13:56:34.556Z,6.45
2022-12-05T14:00:14.725Z,6.40
2022-12-05T14:04:04.252Z,6.36
2022-12-05T14:07:18.752Z,6.33
2022-12-05T14:10:57.030Z,6.30
2022-12-05T14:14:11.142Z,6.30
2022-12-05T14:17:23.422Z,6.26
2022-12-05T14:20:47.521Z,6.17
2022-12-05T14:24:13.760Z,6.10
2022-12-05T14:27:32.388Z,6.04
2022-12-05T14:30:52.207Z,6.00
2022-12-05T14:34:28.419Z,5.96
2022-12-05T14:37:49.696Z,5.85
2022-12-05T14:41:06.480Z,5.81
2022-12-05T14:44:22.452Z,5.73
2022-12-05T14:47:38.281Z,5.68
2022-12-05T14:50:54.068Z,5.65
2022-12-05T14:54:12.361Z,5.57
2022-12-05T14:57:25.605Z,5.51
2022-12-05T15:00:37.934Z,5.51
2022-12-05T15:04:09.660Z,5.47
2022-12-05T15:07:25.519Z,5.47
2022-12-05T15:10:41.042Z,5.55
2022-12-05T15:13:52.990Z,5.49
2022-12-05T15:17:08.383Z,5.45
2022-12-05T15:20:28.167Z,5.51
2022-12-05T15:23:49.736Z,5.43
2022-12-05T15:27:03.871Z,5.55
2022-12-05T15:30:23.665Z,5.57
2022-12-05T15:33:36.046Z,5.58
2022-12-05T15:36:53.926Z,5.58
2022-12-05T15:40:14.397Z,5.58
2022-12-05T15:43:38.127Z,5.46
2022-12-05T15:46:49.858Z,5.37
2022-12-05T15:50:01.620Z,5.29
2022-12-05T15:53:17.403Z,5.23
2022-12-05T15:56:34.168Z,5.20
2022-12-05T15:59:49.892Z,5.17
2022-12-05T16:03:07.142Z,5.13
2022-12-05T16:06:24.147Z,5.17
2022-12-05T16:09:41.635Z,5.24
2022-12-05T16:12:54.852Z,5.26
2022-12-05T16:16:07.072Z,5.26
2022-12-05T16:19:27.257Z,5.16
2022-12-05T16:22:39.518Z,5.11
2022-12-05T16:25:52.187Z,5.05
2022-12-05T16:29:09.525Z,4.97
2022-12-05T16:32:29.079Z,4.91
2022-12-05T16:35:45.495Z,4.85
2022-12-05T16:39:05.422Z,4.76
2022-12-05T16:42:32.013Z,4.67
2022-12-05T16:45:49.915Z,4.64
2022-12-05T16:49:30.731Z,4.58
2022-12-05T16:52:42.892Z,4.51
2022-12-05T16:55:55.492Z,4.49
2022-12-05T16:59:10.346Z,4.47
2022-12-05T17:02:24.161Z,4.45
2022-12-05T17:05:36.341Z,4.50
2022-12-05T17:08:48.574Z,4.49
2022-12-05T17:12:04.458Z,4.46
2022-12-05T17:15:22.595Z,4.49
2022-12-05T17:18:34.688Z,4.50
2022-12-05T17:21:48.879Z,4.52
2022-12-05T17:25:00.977Z,4.52
2022-12-05T17:28:12.943Z,4.53
2022-12-05T17:31:26.821Z,4.54
2022-12-05T17:34:38.706Z,4.55
2022-12-05T17:37:50.778Z,4.54
2022-12-05T17:41:07.224Z,4.54
2022-12-05T17:44:21.738Z,4.54
2022-12-05T17:47:33.525Z,4.58
2022-12-05T17:50:49.291Z,4.59
2022-12-05T17:54:01.452Z,4.61
2022-12-05T17:57:13.262Z,4.60
2022-12-05T18:00:28.049Z,4.64
2022-12-05T18:03:39.975Z,4.66
2022-12-05T18:06:51.744Z,4.68
2022-12-05T18:10:08.245Z,4.72
2022-12-05T18:13:19.039Z,4.73
2022-12-05T18:16:31.094Z,4.75
2022-12-05T18:19:43.151Z,4.79
2022-12-05T18:22:55.232Z,4.81
2022-12-05T18:26:08.679Z,4.82
2022-12-05T18:29:20.635Z,4.81
2022-12-05T18:32:32.545Z,4.79
2022-12-05T18:35:47.402Z,4.84
2022-12-05T18:39:01.453Z,4.85
2022-12-05T18:42:15.441Z,4.85
2022-12-05T18:45:27.398Z,4.86
2022-12-05T18:48:44.828Z,4.87
2022-12-05T18:51:56.467Z,4.87
2022-12-05T18:55:17.175Z,4.85
2022-12-05T18:58:22.199Z,4.90
2022-12-05T19:01:35.062Z,4.92
2022-12-05T19:04:46.982Z,4.89
2022-12-05T19:08:01.948Z,4.88
2022-12-05T19:11:14.256Z,4.85
2022-12-05T19:14:26.914Z,4.89
2022-12-05T19:17:39.995Z,4.87
2022-12-05T19:20:57.947Z,4.82
2022-12-05T19:24:13.090Z,4.79
2022-12-05T19:27:24.737Z,4.77
2022-12-05T19:30:36.474Z,4.75
2022-12-05T19:33:51.382Z,4.74
2022-12-05T19:37:03.250Z,4.72
2022-12-05T19:40:17.785Z,4.72
2022-12-05T19:43:29.811Z,4.73
2022-12-05T19:46:42.621Z,4.70
2022-12-05T19:49:54.803Z,4.68
2022-12-05T19:53:06.467Z,4.68
2022-12-05T19:56:22.055Z,4.69
2022-12-05T19:59:33.946Z,4.70
2022-12-05T20:02:45.995Z,4.70
2022-12-05T20:06:05.356Z,4.71
2022-12-05T20:09:20.289Z,4.70
2022-12-05T20:12:32.306Z,4.69
2022-12-05T20:15:43.984Z,4.68
2022-12-05T20:18:58.030Z,4.68
2022-12-05T20:22:09.812Z,4.65
2022-12-05T20:25:21.852Z,4.64
2022-12-05T20:28:33.632Z,4.67
2022-12-05T20:31:48.619Z,4.70
2022-12-05T20:35:00.354Z,4.70
2022-12-05T20:38:12.314Z,4.71
2022-12-05T20:41:25.211Z,4.71
2022-12-05T20:44:37.930Z,4.71
2022-12-05T20:47:51.303Z,4.69
2022-12-05T20:51:09.186Z,4.68
2022-12-05T20:54:21.728Z,4.70
2022-12-05T20:57:33.843Z,4.73
2022-12-05T21:00:45.585Z,4.72
2022-12-05T21:03:59.120Z,4.72
2022-12-05T21:07:11.028Z,4.71
2022-12-05T21:10:22.916Z,4.73
2022-12-05T21:13:34.977Z,4.75
2022-12-05T21:16:47.252Z,4.75
2022-12-05T21:19:59.211Z,4.67
2022-12-05T21:23:11.371Z,4.74
2022-12-05T21:26:25.161Z,4.76
2022-12-05T21:29:36.909Z,4.73
2022-12-05T21:32:48.633Z,4.69
2022-12-05T21:36:03.012Z,4.68
2022-12-05T21:39:15.675Z,4.69
2022-12-05T21:42:27.417Z,4.69
2022-12-05T21:45:44.281Z,4.71
2022-12-05T21:48:55.129Z,4.70
2022-12-05T21:52:06.844Z,4.71
2022-12-05T21:55:18.727Z,4.70
2022-12-05T21:58:31.694Z,4.70
2022-12-05T22:01:44.315Z,4.69
2022-12-05T22:04:56.306Z,4.61
2022-12-05T22:08:08.132Z,4.62
2022-12-05T22:11:22.445Z,4.63
2022-12-05T22:14:34.135Z,4.53
2022-12-05T22:17:45.814Z,4.66
2022-12-05T22:21:04.273Z,4.67
2022-12-05T22:24:16.153Z,4.67
2022-12-05T22:27:27.970Z,4.70
2022-12-05T22:30:39.696Z,4.62
2022-12-05T22:33:52.154Z,4.63
2022-12-05T22:37:03.895Z,4.58
2022-12-05T22:40:17.868Z,4.59
2022-12-05T22:43:31.572Z,4.60
2022-12-05T22:46:43.365Z,4.58
2022-12-05T22:49:55.250Z,4.57
2022-12-05T22:53:06.943Z,4.58
2022-12-05T22:56:21.003Z,4.55
2022-12-05T22:59:32.722Z,4.58
2022-12-05T23:02:44.400Z,4.63
2022-12-05T23:05:56.331Z,4.57
2022-12-05T23:09:09.599Z,4.50
2022-12-05T23:12:21.478Z,4.54
2022-12-05T23:15:33.160Z,4.58
2022-12-05T23:18:53.563Z,4.50
2022-12-05T23:22:05.260Z,4.47
2022-12-05T23:25:17.017Z,4.45
2022-12-05T23:28:28.741Z,4.46
2022-12-05T23:31:40.674Z,4.47
2022-12-05T23:34:52.591Z,4.51
2022-12-05T23:38:04.495Z,4.53
2022-12-05T23:41:20.904Z,4.56
2022-12-05T23:44:32.611Z,4.57
2022-12-05T23:47:44.460Z,4.56
2022-12-05T23:51:07.544Z,4.55
2022-12-05T23:54:19.718Z,4.56
2022-12-05T23:57:31.515Z,4.56
